Time;durP1;ratioP1;P1;durP2;ratioP2;P2;SDS_P1;SDS_P2;PMS_P1;PMS_P2;Temp;Humidity;BMP_temperature;BMP_pressure;BME280_temperature;BME280_humidity;BME280_pressure;Samples;Min_cycle;Max_cycle;Signal;HPM_P1;HPM_P2
2022/07/22 00:02:23;;;;;;;;;;;;;;;;;;5032022;28;8478;-87
2022/07/22 00:04:49;;;;;;;;;;;;;;;;;;5031534;28;7044;-87
2022/07/22 00:07:15;;;;;;;;;;;;;;;;;;5031233;28;8363;-86
2022/07/22 00:09:41;;;;;;;;;;;;;;;;;;5031452;28;7222;-85
2022/07/22 00:12:07;;;;;;;;;;;;;;;;;;5030690;28;7139;-86
2022/07/22 00:14:33;;;;;;;;;;;;;;;;;;5030766;28;8542;-86
2022/07/22 00:16:58;;;;;;;;;;;;;;;;;;5031222;28;8498;-87
2022/07/22 00:19:24;;;;;;;;;;;;;;;;;;5030936;28;8404;-86
2022/07/22 00:21:50;;;;;;;;;;;;;;;;;;5030539;28;8368;-87
2022/07/22 00:24:16;;;;;;;;;;;;;;;;;;5031152;28;8429;-85
2022/07/22 00:26:41;;;;;;;;;;;;;;;;;;5031153;28;8379;-86
2022/07/22 00:29:07;;;;;;;;;;;;;;;;;;5030917;28;8310;-85
2022/07/22 00:31:32;;;;;;;;;;;;;;;;;;5030460;28;8566;-88
2022/07/22 00:34:00;;;;;;;;;;;;;;;;;;5030359;28;7108;-87
2022/07/22 00:36:27;;;;;;;;;;;;;;;;;;5030595;28;7150;-86
2022/07/22 00:38:52;;;;;;;;;;;;;;;;;;5031369;28;8411;-85
2022/07/22 00:41:18;;;;;;;;;;;;;;;;;;5030655;28;8786;-86
2022/07/22 00:43:49;;;;;;;;;;;;;;;;;;5030575;28;8427;-86
2022/07/22 00:46:15;;;;;;;;;;;;;;;;;;5014205;28;7168;-85
2022/07/22 00:48:40;;;;;;;;;;;;;;;;;;5030475;28;7082;-85
2022/07/22 00:51:06;;;;;;;;;;;;;;;;;;5030612;28;8305;-86
2022/07/22 00:53:31;;;;;;;;;;;;;;;;;;5030163;28;7885;-86
2022/07/22 00:55:57;;;;;;;;;;;;;;;;;;5030492;28;8364;-86
2022/07/22 00:58:23;;;;;;;;;;;;;;;;;;5030702;28;7083;-86
2022/07/22 01:00:49;;;;;;;;;;;;;;;;;;5030156;28;8382;-84
2022/07/22 01:03:16;;;;;;;;;;;;;;;;;;5030516;28;7342;-86
2022/07/22 01:05:42;;;;;;;;;;;;;;;;;;5029978;28;9229;-86
2022/07/22 01:08:08;;;;;;;;;;;;;;;;;;5030411;28;8400;-86
2022/07/22 01:10:34;;;;;;;;;;;;;;;;;;5030078;28;8404;-86
2022/07/22 01:13:00;;;;;;;;;;;;;;;;;;5030309;28;8570;-85
2022/07/22 01:15:25;;;;;;;;;;;;;;;;;;5030639;28;8583;-86
2022/07/22 01:17:51;;;;;;;;;;;;;;;;;;5030507;28;7133;-85
2022/07/22 01:20:17;;;;;;;;;;;;;;;;;;5030318;28;7146;-85
2022/07/22 01:22:45;;;;;;;;;;;;;;;;;;5030032;28;6982;-86
2022/07/22 01:25:11;;;;;;;;;;;;;;;;;;5029914;28;7103;-86
2022/07/22 01:27:37;;;;;;;;;;;;;;;;;;5030125;28;7099;-86
2022/07/22 01:30:04;;;;;;;;;;;;;;;;;;5030198;28;8365;-86
2022/07/22 01:32:29;;;;;;;;;;;;;;;;;;5030715;28;6965;-86
2022/07/22 01:34:55;;;;;;;;;;;;;;;;;;5029722;28;7412;-86
2022/07/22 01:37:20;;;;;;;;;;;;;;;;;;5030771;28;8674;-86
2022/07/22 01:39:46;;;;;;;;;;;;;;;;;;5029917;28;8384;-86
2022/07/22 01:42:11;;;;;;;;;;;;;;;;;;5030003;28;8698;-86
2022/07/22 01:44:37;;;;;;;;;;;;;;;;;;5030966;28;8487;-86
2022/07/22 01:47:02;;;;;;;;;;;;;;;;;;5033836;28;8444;-85
2022/07/22 01:49:28;;;;;;;;;;;;;;;;;;5033658;28;8717;-86
2022/07/22 01:51:54;;;;;;;;;;;;;;;;;;5034277;28;7140;-86
2022/07/22 01:54:19;;;;;;;;;;;;;;;;;;5033331;28;8391;-86
2022/07/22 01:56:45;;;;;;;;;;;;;;;;;;5034270;28;8416;-86
2022/07/22 01:59:10;;;;;;;;;;;;;;;;;;5034297;28;9498;-87
2022/07/22 02:01:36;;;;;;;;;;;;;;;;;;5034545;28;7220;-86
2022/07/22 02:04:01;;;;;;;;;;;;;;;;;;5033451;28;9279;-86
2022/07/22 02:06:27;;;;;;;;;;;;;;;;;;5033471;28;8655;-86
2022/07/22 02:08:52;;;;;;;;;;;;;;;;;;5033126;28;6889;-87
2022/07/22 02:11:18;;;;;;;;;;;;;;;;;;5033189;28;8707;-86
2022/07/22 02:13:43;;;;;;;;;;;;;;;;;;5033471;28;8928;-87
2022/07/22 02:16:09;;;;;;;;;;;;;;;;;;5033360;28;8463;-87
2022/07/22 02:18:35;;;;;;;;;;;;;;;;;;5033085;28;7021;-88
2022/07/22 02:21:00;;;;;;;;;;;;;;;;;;5032866;28;7199;-89
2022/07/22 02:23:26;;;;;;;;;;;;;;;;;;5033245;28;8430;-88
2022/07/22 02:25:51;;;;;;;;;;;;;;;;;;5033309;28;7017;-87
2022/07/22 02:28:17;;;;;;;;;;;;;;;;;;5033071;28;9490;-87
2022/07/22 02:30:42;;;;;;;;;;;;;;;;;;5032954;28;8362;-87
2022/07/22 02:33:08;;;;;;;;;;;;;;;;;;5033009;28;8417;-86
2022/07/22 02:35:34;;;;;;;;;;;;;;;;;;5032589;28;7139;-85
2022/07/22 02:37:59;;;;;;;;;;;;;;;;;;5032951;28;7034;-88
2022/07/22 02:40:25;;;;;;;;;;;;;;;;;;5032876;28;7069;-87
2022/07/22 02:42:50;;;;;;;;;;;;;;;;;;5033223;28;7163;-87
2022/07/22 02:45:16;;;;;;;;;;;;;;;;;;5032750;28;8421;-86
2022/07/22 02:47:46;;;;;;;;;;;;;;;;;;5032863;28;8532;-87
2022/07/22 02:50:11;;;;;;;;;;;;;;;;;;5032577;28;8380;-87
2022/07/22 02:52:37;;;;;;;;;;;;;;;;;;5032678;28;8407;-87
2022/07/22 02:55:03;;;;;;;;;;;;;;;;;;5032122;28;8403;-87
2022/07/22 02:57:28;;;;;;;;;;;;;;;;;;5032659;28;8520;-88
2022/07/22 02:59:54;;;;;;;;;;;;;;;;;;5032942;28;8290;-86
2022/07/22 03:02:19;;;;;;;;;;;;;;;;;;5032162;28;8447;-88
2022/07/22 03:04:45;;;;;;;;;;;;;;;;;;5032139;28;8522;-87
2022/07/22 03:07:10;;;;;;;;;;;;;;;;;;5032336;28;7132;-87
2022/07/22 03:09:36;;;;;;;;;;;;;;;;;;5032498;28;7392;-89
2022/07/22 03:12:01;;;;;;;;;;;;;;;;;;5032885;28;7046;-87
2022/07/22 03:14:27;;;;;;;;;;;;;;;;;;5015456;28;8426;-87
2022/07/22 03:16:52;;;;;;;;;;;;;;;;;;5032040;28;8499;-87
2022/07/22 03:19:18;;;;;;;;;;;;;;;;;;5031743;28;8401;-88
2022/07/22 03:21:43;;;;;;;;;;;;;;;;;;5031999;28;8407;-89
2022/07/22 03:24:09;;;;;;;;;;;;;;;;;;5032897;28;7027;-86
2022/07/22 03:26:35;;;;;;;;;;;;;;;;;;5032653;28;7110;-87
2022/07/22 03:29:00;;;;;;;;;;;;;;;;;;5031977;28;8523;-87
2022/07/22 03:31:26;;;;;;;;;;;;;;;;;;5032226;28;7219;-87
2022/07/22 03:33:52;;;;;;;;;;;;;;;;;;5031365;28;8761;-87
2022/07/22 03:36:18;;;;;;;;;;;;;;;;;;5031615;28;8795;-87
2022/07/22 03:38:43;;;;;;;;;;;;;;;;;;5031492;28;8731;-86
2022/07/22 03:41:09;;;;;;;;;;;;;;;;;;5031523;28;8400;-88
2022/07/22 03:43:35;;;;;;;;;;;;;;;;;;5031587;28;8368;-88
2022/07/22 03:46:00;;;;;;;;;;;;;;;;;;5032172;28;7102;-87
2022/07/22 03:48:26;;;;;;;;;;;;;;;;;;5032335;28;8472;-87
2022/07/22 03:50:52;;;;;;;;;;;;;;;;;;5031777;28;8279;-89
2022/07/22 03:53:17;;;;;;;;;;;;;;;;;;5031290;28;8454;-88
2022/07/22 03:55:42;;;;;;;;;;;;;;;;;;5031291;28;7149;-87
2022/07/22 03:58:08;;;;;;;;;;;;;;;;;;5031288;28;8421;-87
2022/07/22 04:00:34;;;;;;;;;;;;;;;;;;5031328;28;8414;-86
2022/07/22 04:03:00;;;;;;;;;;;;;;;;;;5031035;28;8554;-87
2022/07/22 04:05:25;;;;;;;;;;;;;;;;;;5031091;28;8425;-87
2022/07/22 04:07:51;;;;;;;;;;;;;;;;;;5030613;28;8451;-87
2022/07/22 04:10:17;;;;;;;;;;;;;;;;;;5031077;28;8559;-88
2022/07/22 04:12:42;;;;;;;;;;;;;;;;;;5031102;28;8782;-86
2022/07/22 04:15:09;;;;;;;;;;;;;;;;;;5031365;28;7133;-87
2022/07/22 04:17:34;;;;;;;;;;;;;;;;;;5030619;28;7029;-87
2022/07/22 04:20:00;;;;;;;;;;;;;;;;;;5031409;28;8789;-88
2022/07/22 04:22:26;;;;;;;;;;;;;;;;;;5030847;28;7148;-87
2022/07/22 04:24:52;;;;;;;;;;;;;;;;;;5031094;28;8575;-88
2022/07/22 04:27:18;;;;;;;;;;;;;;;;;;5030776;28;8013;-88
2022/07/22 04:29:44;;;;;;;;;;;;;;;;;;5030786;28;8678;-88
2022/07/22 04:32:09;;;;;;;;;;;;;;;;;;5031154;28;8364;-87
2022/07/22 04:34:35;;;;;;;;;;;;;;;;;;5030898;28;8668;-88
2022/07/22 04:37:00;;;;;;;;;;;;;;;;;;5030878;28;7061;-87
2022/07/22 04:39:26;;;;;;;;;;;;;;;;;;5030515;28;6978;-87
2022/07/22 04:41:51;;;;;;;;;;;;;;;;;;5030309;28;8424;-87
2022/07/22 04:44:17;;;;;;;;;;;;;;;;;;5030702;28;8398;-87
2022/07/22 04:46:42;;;;;;;;;;;;;;;;;;5030919;28;8468;-87
2022/07/22 04:49:07;;;;;;;;;;;;;;;;;;5030310;28;8781;-88
2022/07/22 04:51:33;;;;;;;;;;;;;;;;;;5030728;28;7094;-87
2022/07/22 04:53:58;;;;;;;;;;;;;;;;;;5030464;28;8470;-87
2022/07/22 04:56:24;;;;;;;;;;;;;;;;;;5030383;28;8432;-87
2022/07/22 04:58:51;;;;;;;;;;;;;;;;;;5030243;28;6992;-86
2022/07/22 05:01:17;;;;;;;;;;;;;;;;;;5030490;28;7162;-87
2022/07/22 05:03:42;;;;;;;;;;;;;;;;;;5030192;28;8404;-87
2022/07/22 05:06:09;;;;;;;;;;;;;;;;;;5030149;28;8390;-87
2022/07/22 05:08:34;;;;;;;;;;;;;;;;;;5024977;28;8396;-83
2022/07/22 05:10:59;;;;;;;;;;;;;;;;;;4992779;28;8477;-81
2022/07/22 05:13:25;;;;;;;;;;;;;;;;;;4992885;28;7005;-83
2022/07/22 05:15:51;;;;;;;;;;;;;;;;;;4993421;28;7154;-85
2022/07/22 05:18:16;;;;;;;;;;;;;;;;;;4994376;28;7217;-83
2022/07/22 05:20:42;;;;;;;;;;;;;;;;;;4996711;28;8392;-81
2022/07/22 05:23:08;;;;;;;;;;;;;;;;;;4997225;28;8408;-82
2022/07/22 05:25:33;;;;;;;;;;;;;;;;;;4996655;28;7424;-82
2022/07/22 05:27:59;;;;;;;;;;;;;;;;;;4996419;28;7134;-86
2022/07/22 05:30:25;;;;;;;;;;;;;;;;;;4997231;28;8732;-84
2022/07/22 05:32:51;;;;;;;;;;;;;;;;;;4999099;28;8440;-83
2022/07/22 05:35:17;;;;;;;;;;;;;;;;;;5003668;28;8959;-85
2022/07/22 05:37:42;;;;;;;;;;;;;;;;;;5006563;28;8368;-86
2022/07/22 05:40:08;;;;;;;;;;;;;;;;;;5000469;28;7144;-85
2022/07/22 05:42:34;;;;;;;;;;;;;;;;;;4997467;28;7132;-86
2022/07/22 05:45:00;;;;;;;;;;;;;;;;;;4997081;28;8559;-86
2022/07/22 05:47:25;;;;;;;;;;;;;;;;;;4999137;28;7292;-77
2022/07/22 05:49:51;;;;;;;;;;;;;;;;;;5000072;28;8464;-85
2022/07/22 05:52:17;;;;;;;;;;;;;;;;;;5001405;28;6996;-82
2022/07/22 05:54:42;;;;;;;;;;;;;;;;;;4996766;28;8554;-83
2022/07/22 05:57:09;;;;;;;;;;;;;;;;;;4996434;28;8412;-84
2022/07/22 05:59:35;;;;;;;;;;;;;;;;;;4997286;28;7011;-84
2022/07/22 06:02:00;;;;;;;;;;;;;;;;;;4997297;28;8337;-82
2022/07/22 06:04:26;;;;;;;;;;;;;;;;;;4996963;28;8394;-83
2022/07/22 06:06:52;;;;;;;;;;;;;;;;;;4997118;28;6848;-84
2022/07/22 06:09:17;;;;;;;;;;;;;;;;;;4996864;28;8729;-82
2022/07/22 06:11:43;;;;;;;;;;;;;;;;;;4997155;28;8723;-83
2022/07/22 06:14:08;;;;;;;;;;;;;;;;;;4997239;28;8527;-83
2022/07/22 06:16:34;;;;;;;;;;;;;;;;;;4997334;28;7055;-83
2022/07/22 06:19:00;;;;;;;;;;;;;;;;;;4997429;28;7182;-83
2022/07/22 06:21:26;;;;;;;;;;;;;;;;;;4997349;28;8535;-83
2022/07/22 06:23:51;;;;;;;;;;;;;;;;;;4997321;28;7117;-82
2022/07/22 06:26:17;;;;;;;;;;;;;;;;;;4996686;28;8405;-83
2022/07/22 06:28:42;;;;;;;;;;;;;;;;;;4996935;28;8318;-83
2022/07/22 06:31:08;;;;;;;;;;;;;;;;;;4996565;28;8557;-85
2022/07/22 06:33:34;;;;;;;;;;;;;;;;;;4997020;28;8563;-85
2022/07/22 06:36:00;;;;;;;;;;;;;;;;;;4996963;28;8416;-86
2022/07/22 06:38:25;;;;;;;;;;;;;;;;;;4996380;28;7187;-86
2022/07/22 06:40:51;;;;;;;;;;;;;;;;;;4997099;28;7143;-84
2022/07/22 06:43:16;;;;;;;;;;;;;;;;;;4996718;28;8315;-85
2022/07/22 06:45:42;;;;;;;;;;;;;;;;;;4996305;28;7207;-86
2022/07/22 06:48:08;;;;;;;;;;;;;;;;;;4996897;28;7307;-85
2022/07/22 06:50:33;;;;;;;;;;;;;;;;;;4996396;28;8438;-85
2022/07/22 06:52:58;;;;;;;;;;;;;;;;;;4996287;28;8566;-88
2022/07/22 06:55:24;;;;;;;;;;;;;;;;;;4996173;28;8400;-86
2022/07/22 06:57:49;;;;;;;;;;;;;;;;;;4996421;28;9323;-87
2022/07/22 07:00:15;;;;;;;;;;;;;;;;;;4996491;28;7092;-86
2022/07/22 07:02:41;;;;;;;;;;;;;;;;;;4996422;28;8438;-86
2022/07/22 07:05:07;;;;;;;;;;;;;;;;;;4996075;28;8336;-84
2022/07/22 07:07:32;;;;;;;;;;;;;;;;;;4996423;28;8335;-86
2022/07/22 07:09:58;;;;;;;;;;;;;;;;;;4995937;28;7020;-88
2022/07/22 07:12:24;;;;;;;;;;;;;;;;;;4996409;28;8613;-86
2022/07/22 07:14:49;;;;;;;;;;;;;;;;;;4996180;28;8419;-84
2022/07/22 07:17:15;;;;;;;;;;;;;;;;;;4995413;28;8706;-80
2022/07/22 07:19:41;;;;;;;;;;;;;;;;;;4992235;28;7185;-81
2022/07/22 07:22:06;;;;;;;;;;;;;;;;;;4993365;28;8533;-82
2022/07/22 07:24:32;;;;;;;;;;;;;;;;;;4993246;28;8489;-85
2022/07/22 07:26:57;;;;;;;;;;;;;;;;;;4992879;28;8294;-87
2022/07/22 07:29:22;;;;;;;;;;;;;;;;;;4992479;28;8421;-82
2022/07/22 07:31:48;;;;;;;;;;;;;;;;;;4993479;28;8373;-86
2022/07/22 07:34:14;;;;;;;;;;;;;;;;;;4992931;28;8426;-85
2022/07/22 07:36:39;;;;;;;;;;;;;;;;;;4992357;28;8469;-84
2022/07/22 07:39:04;;;;;;;;;;;;;;;;;;4992617;28;8800;-81
2022/07/22 07:41:30;;;;;;;;;;;;;;;;;;4992578;28;7302;-80
2022/07/22 07:43:55;;;;;;;;;;;;;;;;;;4992632;28;8409;-81
2022/07/22 07:46:21;;;;;;;;;;;;;;;;;;4992943;28;8592;-81
2022/07/22 07:48:48;;;;;;;;;;;;;;;;;;5009530;28;8692;-84
2022/07/22 07:51:13;;;;;;;;;;;;;;;;;;5028390;28;7062;-84
2022/07/22 07:53:39;;;;;;;;;;;;;;;;;;5029124;28;8655;-86
2022/07/22 07:56:04;;;;;;;;;;;;;;;;;;5028994;28;8541;-86
2022/07/22 07:58:30;;;;;;;;;;;;;;;;;;5028426;28;8487;-84
2022/07/22 08:00:55;;;;;;;;;;;;;;;;;;5028243;28;7143;-81
2022/07/22 08:03:21;;;;;;;;;;;;;;;;;;5028727;28;8328;-82
2022/07/22 08:05:46;;;;;;;;;;;;;;;;;;5025302;28;7136;-81
2022/07/22 08:08:12;;;;;;;;;;;;;;;;;;4992952;28;7171;-82
2022/07/22 08:10:37;;;;;;;;;;;;;;;;;;4991172;28;8428;-85
2022/07/22 08:13:04;;;;;;;;;;;;;;;;;;4991518;28;7167;-82
2022/07/22 08:15:31;;;;;;;;;;;;;;;;;;4993999;28;7112;-86
2022/07/22 08:18:00;;;;;;;;;;;;;;;;;;4995285;28;7647;-88
2022/07/22 08:20:27;;;;;;;;;;;;;;;;;;4993487;28;7159;-82
2022/07/22 08:22:53;;;;;;;;;;;;;;;;;;4994077;28;9111;-78
2022/07/22 08:25:19;;;;;;;;;;;;;;;;;;4996099;28;7143;-87
2022/07/22 08:27:45;;;;;;;;;;;;;;;;;;4992758;28;7162;-86
2022/07/22 08:30:11;;;;;;;;;;;;;;;;;;4992061;28;8769;-85
2022/07/22 08:32:37;;;;;;;;;;;;;;;;;;4991942;28;9061;-85
2022/07/22 08:35:03;;;;;;;;;;;;;;;;;;4991563;28;8414;-87
2022/07/22 08:37:29;;;;;;;;;;;;;;;;;;4992366;28;7002;-84
2022/07/22 08:39:55;;;;;;;;;;;;;;;;;;4991523;28;8618;-85
2022/07/22 08:42:22;;;;;;;;;;;;;;;;;;4992108;28;7337;-82
2022/07/22 08:44:48;;;;;;;;;;;;;;;;;;4991802;28;7054;-82
2022/07/22 08:47:14;;;;;;;;;;;;;;;;;;4992096;28;7327;-82
2022/07/22 08:49:39;;;;;;;;;;;;;;;;;;4991410;28;7029;-82
2022/07/22 08:52:05;;;;;;;;;;;;;;;;;;4991364;28;8422;-85
2022/07/22 08:54:31;;;;;;;;;;;;;;;;;;4991482;28;7140;-86
2022/07/22 08:56:56;;;;;;;;;;;;;;;;;;4991754;28;9522;-85
2022/07/22 08:59:22;;;;;;;;;;;;;;;;;;4991316;28;7225;-85
2022/07/22 09:02:06;;;;;;;;;;;;;;;;;;4993521;28;7171;-86
2022/07/22 09:04:32;;;;;;;;;;;;;;;;;;4993763;28;7448;-87
2022/07/22 09:06:58;;;;;;;;;;;;;;;;;;4991809;28;8648;-85
2022/07/22 09:09:33;;;;;;;;;;;;;;;;;;4990956;28;7012;-86
2022/07/22 09:12:06;;;;;;;;;;;;;;;;;;4991405;28;7191;-88
2022/07/22 09:14:49;;;;;;;;;;;;;;;;;;4993030;28;8510;-86
2022/07/22 09:17:34;;;;;;;;;;;;;;;;;;4993343;28;8449;-84
2022/07/22 09:20:00;;;;;;;;;;;;;;;;;;4992818;28;7045;-84
2022/07/22 09:22:40;;;;;;;;;;;;;;;;;;4991780;28;7064;-86
2022/07/22 09:25:18;;;;;;;;;;;;;;;;;;4991814;28;8310;-84
2022/07/22 09:27:44;;;;;;;;;;;;;;;;;;4991432;28;8538;-87
2022/07/22 09:30:17;;;;;;;;;;;;;;;;;;4991182;28;7389;-87
2022/07/22 09:32:43;;;;;;;;;;;;;;;;;;4991233;28;8336;-85
2022/07/22 09:35:10;;;;;;;;;;;;;;;;;;4991622;28;8703;-86
2022/07/22 09:37:56;;;;;;;;;;;;;;;;;;4991000;28;8398;-87
2022/07/22 09:40:26;;;;;;;;;;;;;;;;;;4982176;28;7082;-81
2022/07/22 09:42:53;;;;;;;;;;;;;;;;;;4991901;28;8607;-83
2022/07/22 09:45:20;;;;;;;;;;;;;;;;;;4993426;28;8748;-83
2022/07/22 09:47:46;;;;;;;;;;;;;;;;;;4993982;28;8422;-83
2022/07/22 09:50:17;;;;;;;;;;;;;;;;;;4992107;28;7405;-82
2022/07/22 09:52:44;;;;;;;;;;;;;;;;;;4992641;28;8430;-83
2022/07/22 09:55:09;;;;;;;;;;;;;;;;;;4992915;28;8486;-85
2022/07/22 09:57:35;;;;;;;;;;;;;;;;;;4993052;28;8442;-86
2022/07/22 10:00:00;;;;;;;;;;;;;;;;;;4992715;28;8455;-85
2022/07/22 10:02:27;;;;;;;;;;;;;;;;;;4993177;28;7432;-84
2022/07/22 10:04:56;;;;;;;;;;;;;;;;;;4992518;28;8444;-85
2022/07/22 10:07:23;;;;;;;;;;;;;;;;;;4995761;28;7071;-86
2022/07/22 10:09:51;;;;;;;;;;;;;;;;;;4993282;28;6831;-85
2022/07/22 10:12:17;;;;;;;;;;;;;;;;;;4995891;28;7060;-84
2022/07/22 10:14:45;;;;;;;;;;;;;;;;;;4997399;28;7030;-87
2022/07/22 10:17:13;;;;;;;;;;;;;;;;;;4995764;28;7058;-86
2022/07/22 10:19:40;;;;;;;;;;;;;;;;;;4996432;28;7191;-83
2022/07/22 10:22:25;;;;;;;;;;;;;;;;;;4996088;28;7023;-82
2022/07/22 10:24:59;;;;;;;;;;;;;;;;;;4995746;28;8761;-82
2022/07/22 10:27:43;;;;;;;;;;;;;;;;;;4996252;28;8345;-83
2022/07/22 10:30:10;;;;;;;;;;;;;;;;;;4995624;28;8850;-83
2022/07/22 10:32:35;;;;;;;;;;;;;;;;;;4995969;28;8579;-82
2022/07/22 10:35:01;;;;;;;;;;;;;;;;;;4996131;28;8760;-83
2022/07/22 10:37:43;;;;;;;;;;;;;;;;;;4995953;28;8618;-82
2022/07/22 10:40:12;;;;;;;;;;;;;;;;;;4995344;28;7408;-82
2022/07/22 10:42:56;;;;;;;;;;;;;;;;;;5005923;28;8321;-83
2022/07/22 10:45:45;;;;;;;;;;;;;;;;;;5015778;28;7243;-82
2022/07/22 10:48:15;;;;;;;;;;;;;;;;;;5015512;28;8805;-86
2022/07/22 10:50:43;;;;;;;;;;;;;;;;;;5017150;28;7431;-86
2022/07/22 10:53:11;;;;;;;;;;;;;;;;;;5015697;28;7191;-87
2022/07/22 10:55:38;;;;;;;;;;;;;;;;;;5016101;28;8385;-86
2022/07/22 10:58:22;;;;;;;;;;;;;;;;;;5015851;28;8337;-86
2022/07/22 11:00:48;;;;;;;;;;;;;;;;;;5015553;28;8338;-86
2022/07/22 11:03:23;;;;;;;;;;;;;;;;;;5015602;28;7052;-85
2022/07/22 11:05:49;;;;;;;;;;;;;;;;;;5016116;28;8427;-86
2022/07/22 11:08:15;;;;;;;;;;;;;;;;;;5016223;28;8424;-86
2022/07/22 11:10:47;;;;;;;;;;;;;;;;;;5015680;28;7138;-84
2022/07/22 11:13:13;;;;;;;;;;;;;;;;;;5015583;28;6824;-85
2022/07/22 11:15:38;;;;;;;;;;;;;;;;;;5015564;28;8331;-85
2022/07/22 11:18:04;;;;;;;;;;;;;;;;;;5016345;28;8666;-85
2022/07/22 11:20:29;;;;;;;;;;;;;;;;;;5015794;28;7163;-85
2022/07/22 11:22:56;;;;;;;;;;;;;;;;;;5015549;28;8661;-85
2022/07/22 11:25:26;;;;;;;;;;;;;;;;;;5015014;28;7195;-85
2022/07/22 11:27:52;;;;;;;;;;;;;;;;;;5015214;28;7248;-85
2022/07/22 11:30:18;;;;;;;;;;;;;;;;;;5001000;28;8586;-86
2022/07/22 11:32:43;;;;;;;;;;;;;;;;;;4996615;28;8505;-87
2022/07/22 11:35:13;;;;;;;;;;;;;;;;;;4995560;28;7153;-86
2022/07/22 11:37:38;;;;;;;;;;;;;;;;;;5003380;28;8363;-85
2022/07/22 11:40:05;;;;;;;;;;;;;;;;;;5003627;28;7241;-86
2022/07/22 11:42:31;;;;;;;;;;;;;;;;;;5005727;28;7263;-85
2022/07/22 11:44:56;;;;;;;;;;;;;;;;;;5013232;28;7142;-86
2022/07/22 11:47:22;;;;;;;;;;;;;;;;;;5015388;28;8421;-86
2022/07/22 11:49:48;;;;;;;;;;;;;;;;;;5015064;28;7030;-85
2022/07/22 11:52:13;;;;;;;;;;;;;;;;;;5015077;28;7061;-86
2022/07/22 11:54:43;;;;;;;;;;;;;;;;;;5014779;28;8913;-86
2022/07/22 11:57:08;;;;;;;;;;;;;;;;;;5014568;28;8424;-87
2022/07/22 11:59:35;;;;;;;;;;;;;;;;;;5015043;28;7139;-88
2022/07/22 12:02:02;;;;;;;;;;;;;;;;;;5014840;28;8923;-86
2022/07/22 12:04:31;;;;;;;;;;;;;;;;;;5014434;28;8806;-87
2022/07/22 12:06:58;;;;;;;;;;;;;;;;;;5014801;28;8745;-86
2022/07/22 12:09:30;;;;;;;;;;;;;;;;;;5014811;28;8437;-87
2022/07/22 12:11:57;;;;;;;;;;;;;;;;;;5014626;28;8283;-89
2022/07/22 12:14:28;;;;;;;;;;;;;;;;;;5014469;28;8810;-87
2022/07/22 12:17:10;;;;;;;;;;;;;;;;;;5014808;28;6975;-86
2022/07/22 12:19:37;;;;;;;;;;;;;;;;;;5014603;28;7073;-87
2022/07/22 12:22:04;;;;;;;;;;;;;;;;;;5014436;28;7193;-86
2022/07/22 12:24:30;;;;;;;;;;;;;;;;;;5014536;28;8427;-88
2022/07/22 12:26:58;;;;;;;;;;;;;;;;;;5014215;28;8392;-87
2022/07/22 12:29:25;;;;;;;;;;;;;;;;;;5013684;28;8403;-87
2022/07/22 12:31:53;;;;;;;;;;;;;;;;;;5013955;28;8434;-87
2022/07/22 12:34:33;;;;;;;;;;;;;;;;;;5014814;28;6834;-87
2022/07/22 12:37:02;;;;;;;;;;;;;;;;;;5014164;28;8442;-87
2022/07/22 12:39:29;;;;;;;;;;;;;;;;;;5014187;28;7005;-87
2022/07/22 12:41:55;;;;;;;;;;;;;;;;;;5015662;28;7060;-86
2022/07/22 12:44:25;;;;;;;;;;;;;;;;;;5014702;28;7418;-75
2022/07/22 12:46:55;;;;;;;;;;;;;;;;;;5014618;28;8481;-87
2022/07/22 12:49:23;;;;;;;;;;;;;;;;;;5013563;28;8451;-87
2022/07/22 12:52:24;;;;;;;;;;;;;;;;;;5014382;28;8537;-87
2022/07/22 12:54:50;;;;;;;;;;;;;;;;;;4976885;28;8323;-90
2022/07/22 12:57:15;;;;;;;;;;;;;;;;;;4977671;28;8411;-86
2022/07/22 12:59:51;;;;;;;;;;;;;;;;;;4977389;28;8925;-90
2022/07/22 13:02:16;;;;;;;;;;;;;;;;;;4977741;28;8395;-87
2022/07/22 13:04:41;;;;;;;;;;;;;;;;;;4977492;28;7797;-87
2022/07/22 13:07:07;;;;;;;;;;;;;;;;;;4977357;28;8407;-85
2022/07/22 13:09:32;;;;;;;;;;;;;;;;;;4977501;28;7036;-86
2022/07/22 13:11:58;;;;;;;;;;;;;;;;;;4977678;28;8460;-87
2022/07/22 13:14:23;;;;;;;;;;;;;;;;;;4977272;28;7030;-87
2022/07/22 13:16:49;;;;;;;;;;;;;;;;;;4968305;28;7176;-86
2022/07/22 13:19:14;;;;;;;;;;;;;;;;;;4972522;28;9155;-87
2022/07/22 13:21:40;;;;;;;;;;;;;;;;;;4954912;28;7068;-85
2022/07/22 13:24:06;;;;;;;;;;;;;;;;;;4955105;28;8495;-86
2022/07/22 13:26:32;;;;;;;;;;;;;;;;;;4955348;28;7233;-86
2022/07/22 13:28:57;;;;;;;;;;;;;;;;;;4974448;28;7185;-85
2022/07/22 13:31:23;;;;;;;;;;;;;;;;;;4991216;28;7010;-87
2022/07/22 13:33:48;;;;;;;;;;;;;;;;;;4992217;28;8477;-87
2022/07/22 13:36:14;;;;;;;;;;;;;;;;;;4991823;28;8425;-87
2022/07/22 13:38:39;;;;;;;;;;;;;;;;;;4991175;28;7179;-86
2022/07/22 13:41:16;;;;;;;;;;;;;;;;;;4994185;28;8455;-86
2022/07/22 13:43:41;;;;;;;;;;;;;;;;;;4996618;28;8429;-86
2022/07/22 13:46:07;;;;;;;;;;;;;;;;;;4997551;28;7057;-87
2022/07/22 13:48:33;;;;;;;;;;;;;;;;;;4997565;28;7161;-86
2022/07/22 13:50:59;;;;;;;;;;;;;;;;;;4996986;28;7247;-87
2022/07/22 13:53:24;;;;;;;;;;;;;;;;;;4996160;28;8340;-86
2022/07/22 13:55:50;;;;;;;;;;;;;;;;;;4996895;28;8502;-87
2022/07/22 13:58:15;;;;;;;;;;;;;;;;;;4996057;28;8483;-85
2022/07/22 14:00:41;;;;;;;;;;;;;;;;;;4996606;28;7090;-86
2022/07/22 14:03:06;;;;;;;;;;;;;;;;;;4996044;28;8435;-86
2022/07/22 14:05:32;;;;;;;;;;;;;;;;;;4996341;28;8434;-86
2022/07/22 14:07:57;;;;;;;;;;;;;;;;;;4995754;28;8521;-86
2022/07/22 14:10:22;;;;;;;;;;;;;;;;;;4996888;28;7169;-74
2022/07/22 14:12:49;;;;;;;;;;;;;;;;;;4995707;28;8664;-89
2022/07/22 14:15:15;;;;;;;;;;;;;;;;;;4998048;28;8616;-86
2022/07/22 14:17:41;;;;;;;;;;;;;;;;;;5016027;28;7497;-87
2022/07/22 14:20:07;;;;;;;;;;;;;;;;;;5015544;28;8390;-87
2022/07/22 14:22:34;;;;;;;;;;;;;;;;;;5015411;28;8886;-86
2022/07/22 14:24:59;;;;;;;;;;;;;;;;;;5015757;28;8456;-85
2022/07/22 14:27:25;;;;;;;;;;;;;;;;;;5000424;28;8659;-87
2022/07/22 14:29:50;;;;;;;;;;;;;;;;;;4995907;28;8421;-87
2022/07/22 14:32:16;;;;;;;;;;;;;;;;;;5000697;28;8457;-86
2022/07/22 14:34:41;;;;;;;;;;;;;;;;;;5002129;28;8458;-87
2022/07/22 14:37:08;;;;;;;;;;;;;;;;;;5011514;28;8743;-86
2022/07/22 14:39:34;;;;;;;;;;;;;;;;;;5015787;28;8437;-86
2022/07/22 14:42:00;;;;;;;;;;;;;;;;;;5031615;28;8491;-85
2022/07/22 14:44:25;;;;;;;;;;;;;;;;;;5015724;28;8403;-87
2022/07/22 14:46:51;;;;;;;;;;;;;;;;;;5015611;28;8343;-87
2022/07/22 14:49:16;;;;;;;;;;;;;;;;;;5015928;28;6957;-87
2022/07/22 14:51:43;;;;;;;;;;;;;;;;;;5013718;28;7146;-87
2022/07/22 14:54:11;;;;;;;;;;;;;;;;;;5015692;28;7097;-86
2022/07/22 14:56:37;;;;;;;;;;;;;;;;;;5015596;28;8433;-86
2022/07/22 14:59:03;;;;;;;;;;;;;;;;;;5015801;28;7495;-85
2022/07/22 15:01:28;;;;;;;;;;;;;;;;;;5014272;28;7047;-87
2022/07/22 15:03:54;;;;;;;;;;;;;;;;;;5015009;28;8465;-83
2022/07/22 15:06:20;;;;;;;;;;;;;;;;;;5015869;28;8427;-84
2022/07/22 15:08:46;;;;;;;;;;;;;;;;;;5015247;28;8507;-86
2022/07/22 15:11:11;;;;;;;;;;;;;;;;;;5015152;28;8558;-86
2022/07/22 15:13:37;;;;;;;;;;;;;;;;;;5014780;28;8403;-87
2022/07/22 15:16:02;;;;;;;;;;;;;;;;;;5014648;28;8659;-86
2022/07/22 15:18:28;;;;;;;;;;;;;;;;;;5014571;28;8431;-87
2022/07/22 15:20:56;;;;;;;;;;;;;;;;;;5014156;28;8567;-83
2022/07/22 15:23:25;;;;;;;;;;;;;;;;;;5014380;28;7134;-85
2022/07/22 15:25:51;;;;;;;;;;;;;;;;;;5014869;28;8313;-87
2022/07/22 15:28:17;;;;;;;;;;;;;;;;;;5015156;28;7368;-86
2022/07/22 15:30:42;;;;;;;;;;;;;;;;;;5015005;28;7229;-86
2022/07/22 15:33:08;;;;;;;;;;;;;;;;;;5014011;28;8671;-85
2022/07/22 15:35:33;;;;;;;;;;;;;;;;;;5014996;28;8408;-86
2022/07/22 15:37:59;;;;;;;;;;;;;;;;;;5014924;28;7160;-87
2022/07/22 15:40:24;;;;;;;;;;;;;;;;;;5014701;28;8471;-87
2022/07/22 15:42:50;;;;;;;;;;;;;;;;;;5013718;28;8674;-86
2022/07/22 15:45:15;;;;;;;;;;;;;;;;;;5014754;28;7445;-86
2022/07/22 15:47:41;;;;;;;;;;;;;;;;;;5014992;28;8371;-87
2022/07/22 15:50:07;;;;;;;;;;;;;;;;;;5014444;28;8411;-86
2022/07/22 15:52:32;;;;;;;;;;;;;;;;;;5013457;28;8385;-88
2022/07/22 15:54:58;;;;;;;;;;;;;;;;;;5013529;28;8333;-87
2022/07/22 16:00:07;;;;;;;;;;;;;;;;;;5016163;28;6830;-86
2022/07/22 16:02:33;;;;;;;;;;;;;;;;;;5013219;28;7419;-87
2022/07/22 16:04:58;;;;;;;;;;;;;;;;;;5013819;28;7036;-87
2022/07/22 16:07:24;;;;;;;;;;;;;;;;;;5014513;28;8445;-87
2022/07/22 16:20:31;;;;;;;;;;;;;;;;;;6049619;22;1887151;-58
2022/07/22 16:22:57;;;;;;;;;;;;;;;;;;6077476;23;7178;-58
2022/07/22 16:25:22;;;;;;;;;;;;;;;;;;6077944;23;7419;-58
2022/07/22 16:27:50;;;;;;;;;;;;;;;;;;6077740;23;7016;-58
2022/07/22 16:30:15;;;;;;;;;;;;;;;;;;6078954;23;6969;-58
2022/07/22 16:33:03;;;;;;;;;;;;;;;;;;6052960;23;7037;-58
2022/07/22 16:35:28;;;;;;;;;;;;;;;;;;6078682;23;7169;-58
2022/07/22 16:37:59;;;;;;;;;;;;;;;;;;6078141;23;7175;-58
2022/07/22 16:40:25;;;;;;;;;;;;;;;;;;6078386;23;7036;-58
2022/07/22 16:42:51;;;;;;;;;;;;;;;;;;6078871;23;7083;-58
2022/07/22 16:45:16;;;;;;;;;;;;;;;;;;6078321;23;7056;-58
2022/07/22 16:47:42;;;;;;;;;;;;;;;;;;6078255;23;7147;-58
2022/07/22 16:50:07;;;;;;;;;;;;;;;;;;6078673;23;6907;-58
2022/07/22 16:52:33;;;;;;;;;;;;;;;;;;6078118;23;7192;-58
2022/07/22 16:54:58;;;;;;;;;;;;;;;;;;6078423;23;7412;-58
2022/07/22 16:57:24;;;;;;;;;;;;;;;;;;6078399;23;7225;-57
2022/07/22 16:59:49;;;;;;;;;;;;;;;;;;6078300;23;7038;-57
2022/07/22 17:02:15;;;;;;;;;;;;;;;;;;6078240;23;6933;-57
2022/07/22 17:04:41;;;;;;;;;;;;;;;;;;6078123;23;7189;-57
2022/07/22 17:07:07;;;;;;;;;;;;;;;;;;6078197;23;7248;-57
2022/07/22 17:09:33;;;;;;;;;;;;;;;;;;6077837;23;7191;-58
2022/07/22 17:12:17;;;;;;;;;;;;;;;;;;6078232;23;6993;-58
2022/07/22 17:14:43;;;;;;;;;;;;;;;;;;6077994;23;6973;-58